Time;durP1;ratioP1;P1;durP2;ratioP2;P2;SDS_P1;SDS_P2;PMS_P1;PMS_P2;Temp;Humidity;BMP_temperature;BMP_pressure;BME280_temperature;BME280_humidity;BME280_pressure;Samples;Min_cycle;Max_cycle;Signal;HPM_P1;HPM_P2
2021/03/19 00:00:18;;;;;;;2.90;2.70;;;3.40;99.90;;;;;;4989241;28;20304;-75
2021/03/19 00:02:45;;;;;;;3.17;2.83;;;3.30;99.90;;;;;;4988753;28;20564;-75
2021/03/19 00:05:13;;;;;;;3.53;3.23;;;3.30;99.90;;;;;;4988915;28;20236;-75
2021/03/19 00:07:41;;;;;;;3.23;3.03;;;3.30;99.90;;;;;;4989623;28;20248;-75
2021/03/19 00:10:09;;;;;;;3.10;2.80;;;3.30;99.90;;;;;;4989350;28;20241;-75
2021/03/19 00:12:35;;;;;;;5.20;3.33;;;3.20;99.90;;;;;;4989563;28;20217;-76
2021/03/19 00:15:02;;;;;;;4.43;3.77;;;3.20;99.90;;;;;;4989453;28;20257;-76
2021/03/19 00:17:28;;;;;;;5.13;3.60;;;3.20;99.90;;;;;;4989532;28;20268;-76
2021/03/19 00:19:55;;;;;;;3.70;3.40;;;3.10;99.90;;;;;;4989433;28;20349;-76
2021/03/19 00:22:21;;;;;;;4.10;3.73;;;3.10;99.90;;;;;;4989359;28;20210;-77
2021/03/19 00:24:48;;;;;;;4.27;3.87;;;3.00;99.90;;;;;;4989572;28;20289;-76
2021/03/19 00:27:14;;;;;;;4.07;3.83;;;3.00;99.90;;;;;;4989395;28;20296;-76
2021/03/19 00:29:40;;;;;;;4.00;3.70;;;3.00;99.90;;;;;;4989478;28;20236;-76
2021/03/19 00:32:06;;;;;;;3.87;3.57;;;3.00;99.90;;;;;;4989356;28;20218;-76
2021/03/19 00:34:32;;;;;;;3.80;3.50;;;3.00;99.90;;;;;;4989447;28;20242;-77
2021/03/19 00:36:59;;;;;;;4.27;3.97;;;2.90;99.90;;;;;;4989202;28;20696;-76
2021/03/19 00:39:25;;;;;;;4.47;3.93;;;2.90;99.90;;;;;;4989351;28;20210;-77
2021/03/19 00:41:53;;;;;;;3.87;3.57;;;2.90;99.90;;;;;;4989249;28;20207;-76
2021/03/19 00:44:19;;;;;;;4.17;3.87;;;2.90;99.90;;;;;;4989097;28;20256;-77
2021/03/19 00:46:45;;;;;;;4.37;4.07;;;2.90;99.90;;;;;;4988996;28;20629;-76
2021/03/19 00:49:11;;;;;;;3.90;3.60;;;2.90;99.90;;;;;;4988911;28;20225;-75
2021/03/19 00:51:38;;;;;;;4.20;3.90;;;2.90;99.90;;;;;;4989191;28;20229;-75
2021/03/19 00:54:06;;;;;;;4.53;4.13;;;2.90;99.90;;;;;;4988607;28;20214;-75
2021/03/19 00:56:32;;;;;;;4.60;4.30;;;2.90;99.90;;;;;;4989080;28;20215;-76
2021/03/19 00:58:58;;;;;;;4.93;4.53;;;2.90;99.90;;;;;;4989057;28;20210;-75
2021/03/19 01:01:24;;;;;;;5.53;5.07;;;2.90;99.90;;;;;;4988966;28;20214;-75
2021/03/19 01:03:50;;;;;;;6.10;5.60;;;2.90;99.90;;;;;;4989022;28;20236;-75
2021/03/19 01:06:16;;;;;;;6.10;5.60;;;2.90;99.90;;;;;;4989013;28;20218;-76
2021/03/19 01:08:42;;;;;;;6.53;5.93;;;2.90;99.90;;;;;;4988718;28;20696;-76
2021/03/19 01:11:09;;;;;;;6.60;6.00;;;2.90;99.90;;;;;;4988851;28;20226;-78
2021/03/19 01:13:35;;;;;;;6.73;6.13;;;3.00;99.90;;;;;;4988950;28;20217;-78
2021/03/19 01:16:02;;;;;;;7.73;7.03;;;3.00;99.90;;;;;;4989099;28;20213;-78
2021/03/19 01:18:30;;;;;;;7.37;6.77;;;3.00;99.90;;;;;;4988458;28;20660;-78
2021/03/19 01:20:57;;;;;;;8.43;7.43;;;3.00;99.90;;;;;;5003132;28;20209;-78
2021/03/19 01:23:23;;;;;;;9.10;7.97;;;3.00;99.90;;;;;;5008184;28;20624;-77
2021/03/19 01:25:49;;;;;;;8.70;7.80;;;3.00;99.90;;;;;;5008764;28;20284;-78
2021/03/19 01:28:17;;;;;;;9.50;8.13;;;3.00;99.90;;;;;;5008453;28;20613;-77
2021/03/19 01:30:44;;;;;;;10.67;9.00;;;3.00;99.90;;;;;;5008138;28;20244;-77
2021/03/19 01:33:11;;;;;;;10.90;9.87;;;3.00;99.90;;;;;;5008383;28;20241;-77
2021/03/19 01:35:39;;;;;;;11.00;9.83;;;3.00;99.90;;;;;;5008632;28;20209;-77
2021/03/19 01:38:06;;;;;;;11.00;9.90;;;3.00;99.90;;;;;;5008395;28;20652;-77
2021/03/19 01:40:36;;;;;;;10.63;9.60;;;3.00;99.90;;;;;;5008301;28;20224;-77
2021/03/19 01:43:04;;;;;;;11.07;9.97;;;3.00;99.90;;;;;;5008495;28;20205;-77
2021/03/19 01:46:07;;;;;;;10.60;9.47;;;3.00;99.90;;;;;;5008054;28;20744;-75
2021/03/19 01:49:10;;;;;;;11.33;10.17;;;2.90;99.90;;;;;;5008139;28;20209;-74
2021/03/19 01:52:14;;;;;;;11.63;9.80;;;2.90;99.90;;;;;;5008258;28;20216;-74
2021/03/19 01:55:17;;;;;;;10.20;9.20;;;2.90;99.90;;;;;;5008309;28;20201;-74
2021/03/19 01:58:21;;;;;;;10.20;9.07;;;2.90;99.90;;;;;;5011486;28;20213;-75
2021/03/19 02:01:24;;;;;;;8.77;7.97;;;2.80;99.90;;;;;;5011683;28;20217;-76
2021/03/19 02:04:28;;;;;;;9.53;8.53;;;2.80;99.90;;;;;;5011486;28;20668;-75
2021/03/19 02:07:31;;;;;;;9.00;8.03;;;2.80;99.90;;;;;;5011497;28;20209;-76
2021/03/19 02:10:35;;;;;;;8.97;8.10;;;2.80;99.90;;;;;;5011367;28;20302;-75
2021/03/19 02:13:38;;;;;;;10.50;8.77;;;2.80;99.90;;;;;;5011599;28;20202;-76
2021/03/19 02:16:42;;;;;;;11.00;8.27;;;2.70;99.90;;;;;;4991555;28;20205;-75
2021/03/19 02:19:45;;;;;;;8.90;8.00;;;2.70;99.90;;;;;;4991468;28;20273;-75
2021/03/19 02:22:49;;;;;;;8.90;7.83;;;2.70;99.90;;;;;;4991645;28;20212;-76
2021/03/19 02:25:52;;;;;;;9.23;7.27;;;2.70;99.90;;;;;;4991974;28;20217;-76
2021/03/19 02:28:56;;;;;;;9.80;7.37;;;2.70;99.90;;;;;;4991317;28;20676;-81
2021/03/19 02:31:49;;;;;;;9.83;7.90;;;2.70;99.90;;;;;;4991313;28;20218;-77
2021/03/19 02:34:16;;;;;;;8.90;7.30;;;2.70;99.90;;;;;;4991401;28;20213;-77
2021/03/19 02:36:42;;;;;;;8.57;7.73;;;2.60;99.90;;;;;;4991564;28;20213;-77
2021/03/19 02:39:08;;;;;;;9.37;8.20;;;2.60;99.90;;;;;;4991331;28;20206;-78
2021/03/19 02:41:34;;;;;;;9.27;7.93;;;2.70;99.90;;;;;;4991802;28;20246;-77
2021/03/19 02:44:01;;;;;;;9.87;7.53;;;2.70;99.90;;;;;;4991534;28;20233;-78
2021/03/19 02:46:28;;;;;;;8.60;7.33;;;2.70;99.90;;;;;;4991000;28;20673;-78
2021/03/19 02:48:54;;;;;;;8.87;7.43;;;2.70;99.90;;;;;;4991549;28;20210;-78
2021/03/19 02:51:20;;;;;;;8.20;7.40;;;2.70;99.90;;;;;;4990939;28;20217;-78
2021/03/19 02:53:46;;;;;;;9.83;7.87;;;2.70;99.90;;;;;;4991445;28;20264;-74
2021/03/19 02:56:13;;;;;;;9.20;7.63;;;2.70;99.90;;;;;;4991023;28;20217;-75
2021/03/19 02:58:39;;;;;;;8.10;7.17;;;2.70;99.90;;;;;;4991168;28;20202;-75
2021/03/19 03:01:06;;;;;;;7.73;6.93;;;2.70;99.90;;;;;;4990905;28;20268;-75
2021/03/19 03:03:34;;;;;;;8.80;7.07;;;2.70;99.90;;;;;;4990717;28;20727;-75
2021/03/19 03:06:00;;;;;;;8.57;7.00;;;2.70;99.90;;;;;;4991082;28;20217;-75
2021/03/19 03:08:29;;;;;;;8.57;6.80;;;2.70;99.90;;;;;;4989423;28;20677;-75
2021/03/19 03:10:55;;;;;;;7.43;6.73;;;2.70;99.90;;;;;;4990788;28;20245;-75
2021/03/19 03:13:22;;;;;;;7.63;6.77;;;2.70;99.90;;;;;;4991037;28;20210;-75
2021/03/19 03:15:48;;;;;;;7.80;7.00;;;2.70;99.90;;;;;;4990969;28;20245;-75
2021/03/19 03:18:15;;;;;;;8.37;7.00;;;2.70;99.90;;;;;;4990612;28;20207;-74
2021/03/19 03:20:47;;;;;;;9.27;7.67;;;2.60;99.90;;;;;;4990347;28;20643;-75
2021/03/19 03:23:14;;;;;;;17.40;9.70;;;2.60;99.90;;;;;;4990715;28;20194;-75
2021/03/19 03:25:41;;;;;;;14.23;9.73;;;2.60;99.90;;;;;;4990391;28;20711;-74
2021/03/19 03:28:08;;;;;;;16.17;10.20;;;2.60;99.90;;;;;;4990864;28;20249;-75
2021/03/19 03:30:39;;;;;;;14.67;10.10;;;2.50;99.90;;;;;;4990365;28;20246;-75
2021/03/19 03:33:06;;;;;;;18.10;10.83;;;2.50;99.90;;;;;;4990750;28;20567;-75
2021/03/19 03:35:33;;;;;;;15.03;10.50;;;2.50;99.90;;;;;;4990240;28;20217;-74
2021/03/19 03:38:00;;;;;;;19.43;11.27;;;2.40;99.90;;;;;;4990302;28;20211;-75
2021/03/19 03:40:29;;;;;;;18.70;11.33;;;2.40;99.90;;;;;;4990375;28;20232;-75
2021/03/19 03:42:55;;;;;;;15.80;10.70;;;2.40;99.90;;;;;;4990531;28;20207;-75
2021/03/19 03:45:22;;;;;;;17.77;11.27;;;2.40;99.90;;;;;;4990327;28;20272;-75
2021/03/19 03:47:48;;;;;;;21.60;11.13;;;2.30;99.90;;;;;;4990295;28;20617;-76
2021/03/19 03:50:17;;;;;;;19.87;11.10;;;2.30;99.90;;;;;;4989958;28;20273;-76
2021/03/19 03:52:43;;;;;;;18.67;11.20;;;2.30;99.90;;;;;;4990315;28;20210;-76
2021/03/19 03:55:11;;;;;;;18.83;11.37;;;2.30;99.90;;;;;;4990084;28;20210;-76
2021/03/19 03:57:38;;;;;;;20.33;12.30;;;2.30;99.90;;;;;;4990066;28;20257;-75
2021/03/19 04:00:05;;;;;;;20.43;11.70;;;2.30;99.90;;;;;;4989626;28;20737;-75
2021/03/19 04:02:35;;;;;;;20.53;12.07;;;2.30;99.90;;;;;;4989750;28;20237;-75
2021/03/19 04:05:01;;;;;;;21.80;12.67;;;2.30;99.90;;;;;;4989841;28;20234;-75
2021/03/19 04:07:27;;;;;;;19.20;12.53;;;2.30;99.90;;;;;;4989830;28;20214;-76
2021/03/19 04:09:53;;;;;;;21.50;13.00;;;2.30;99.90;;;;;;4989347;28;20846;-75
2021/03/19 04:12:20;;;;;;;20.77;13.03;;;2.20;99.90;;;;;;4989694;28;20217;-75
2021/03/19 04:14:46;;;;;;;22.37;13.17;;;2.20;99.90;;;;;;4989688;28;20221;-75
2021/03/19 04:17:26;;;;;;;20.33;12.23;;;2.20;99.90;;;;;;4989652;28;20690;-76
2021/03/19 04:19:52;;;;;;;23.13;14.17;;;2.20;99.90;;;;;;4988846;28;20332;-75
2021/03/19 04:22:19;;;;;;;23.77;13.23;;;2.20;99.90;;;;;;4989451;28;20210;-75
2021/03/19 04:24:47;;;;;;;27.70;13.53;;;2.20;99.90;;;;;;4989808;28;20237;-76
2021/03/19 04:27:15;;;;;;;22.67;12.53;;;2.20;99.90;;;;;;4989613;28;20216;-77
2021/03/19 04:29:42;;;;;;;24.50;13.40;;;2.20;99.90;;;;;;4989594;28;20240;-76
2021/03/19 04:32:08;;;;;;;24.03;13.03;;;2.20;99.90;;;;;;4989392;28;20253;-76
2021/03/19 04:34:34;;;;;;;23.00;12.17;;;2.20;99.90;;;;;;4989448;28;20209;-76
2021/03/19 04:37:00;;;;;;;20.07;12.07;;;2.10;99.90;;;;;;4989451;28;20245;-76
2021/03/19 04:39:28;;;;;;;25.83;12.50;;;2.20;99.90;;;;;;4989208;28;20220;-75
2021/03/19 04:41:57;;;;;;;24.87;12.30;;;2.20;99.90;;;;;;4989486;28;20261;-75
2021/03/19 04:44:27;;;;;;;22.10;11.60;;;2.20;99.90;;;;;;4989259;28;20260;-75
2021/03/19 04:46:54;;;;;;;19.93;12.13;;;2.20;99.90;;;;;;4989438;28;20583;-75
2021/03/19 04:49:20;;;;;;;22.20;11.70;;;2.20;99.90;;;;;;4989026;28;20233;-75
2021/03/19 04:51:47;;;;;;;20.43;11.67;;;2.20;99.90;;;;;;4988902;28;20214;-75
2021/03/19 04:54:13;;;;;;;19.67;11.47;;;2.20;99.90;;;;;;4989322;28;20211;-77
2021/03/19 04:56:40;;;;;;;22.20;11.03;;;2.20;99.90;;;;;;4989095;28;20209;-76
2021/03/19 04:59:06;;;;;;;17.53;10.93;;;2.20;99.90;;;;;;4997277;28;20205;-76
2021/03/19 05:01:33;;;;;;;19.60;11.00;;;2.20;99.90;;;;;;5008666;28;20394;-78
2021/03/19 05:03:59;;;;;;;18.43;10.90;;;2.20;99.90;;;;;;5008850;28;20229;-76
2021/03/19 05:06:26;;;;;;;19.30;10.87;;;2.20;99.90;;;;;;5008525;28;20205;-76
2021/03/19 05:08:52;;;;;;;13.67;10.13;;;2.20;99.90;;;;;;5008711;28;20355;-76
2021/03/19 05:11:18;;;;;;;12.90;9.23;;;2.10;99.90;;;;;;5008646;28;20225;-75
2021/03/19 05:13:44;;;;;;;11.80;9.33;;;2.10;99.90;;;;;;5008865;28;20208;-75
2021/03/19 05:16:11;;;;;;;13.43;9.63;;;2.10;99.90;;;;;;5008680;28;20255;-76
2021/03/19 05:18:37;;;;;;;13.17;10.37;;;2.00;99.90;;;;;;5008241;28;20253;-76
2021/03/19 05:21:04;;;;;;;14.07;10.40;;;2.00;99.90;;;;;;5008359;28;20573;-76
2021/03/19 05:23:35;;;;;;;15.27;10.50;;;2.00;99.90;;;;;;5008715;28;20237;-77
2021/03/19 05:26:01;;;;;;;17.53;11.20;;;2.00;99.90;;;;;;5008335;28;20605;-77
2021/03/19 05:28:29;;;;;;;16.37;11.67;;;1.90;99.90;;;;;;5008452;28;20217;-77
2021/03/19 05:30:55;;;;;;;14.97;10.30;;;1.90;99.90;;;;;;5008788;28;20237;-76
2021/03/19 05:33:22;;;;;;;16.63;11.33;;;1.90;99.90;;;;;;5011922;28;20927;-77
2021/03/19 05:35:48;;;;;;;19.17;11.73;;;1.90;99.90;;;;;;5011867;28;20734;-77
2021/03/19 05:38:15;;;;;;;19.33;11.97;;;1.90;99.90;;;;;;5012388;28;20252;-77
2021/03/19 05:40:44;;;;;;;21.03;12.37;;;2.00;99.90;;;;;;5012115;28;20202;-78
2021/03/19 05:43:23;;;;;;;21.30;14.30;;;2.00;99.90;;;;;;5012391;28;20970;-76
2021/03/19 05:45:52;;;;;;;18.83;14.07;;;2.00;99.90;;;;;;5012663;28;20196;-76
2021/03/19 05:48:18;;;;;;;23.87;14.37;;;2.00;99.90;;;;;;5012602;28;21011;-76
2021/03/19 05:50:45;;;;;;;21.20;14.27;;;2.00;99.90;;;;;;5012737;28;20275;-76
2021/03/19 05:53:13;;;;;;;21.43;13.80;;;2.00;99.90;;;;;;5012759;28;20212;-76
2021/03/19 05:55:41;;;;;;;21.30;14.40;;;2.00;99.90;;;;;;5011978;28;20579;-76
2021/03/19 05:58:17;;;;;;;21.13;15.23;;;2.10;99.90;;;;;;5011921;28;20244;-75
2021/03/19 06:00:43;;;;;;;19.67;14.43;;;2.10;99.90;;;;;;5011743;28;20201;-76
2021/03/19 06:03:11;;;;;;;16.83;12.20;;;2.10;99.90;;;;;;5011700;28;20214;-76
2021/03/19 06:05:57;;;;;;;16.20;11.23;;;2.10;99.90;;;;;;5011733;28;20210;-76
2021/03/19 06:08:28;;;;;;;17.20;11.80;;;2.10;99.90;;;;;;5011528;28;20237;-76
2021/03/19 06:11:06;;;;;;;13.23;10.77;;;2.10;99.90;;;;;;5011437;28;20240;-76
2021/03/19 06:13:44;;;;;;;14.80;11.23;;;2.10;99.90;;;;;;5011538;28;20243;-76
2021/03/19 06:16:33;;;;;;;14.07;11.43;;;2.10;99.90;;;;;;5011594;28;20189;-77
2021/03/19 06:19:03;;;;;;;15.50;11.30;;;2.10;99.90;;;;;;5006970;28;20248;-76
2021/03/19 06:21:32;;;;;;;15.23;11.67;;;2.10;99.90;;;;;;5011602;28;20582;-77
2021/03/19 06:24:04;;;;;;;12.47;11.17;;;2.10;99.90;;;;;;5011609;28;20206;-77
2021/03/19 06:26:34;;;;;;;15.47;11.30;;;2.10;99.90;;;;;;5011292;28;20197;-77
2021/03/19 06:29:10;;;;;;;14.63;11.20;;;2.20;99.90;;;;;;5011428;28;20201;-77
2021/03/19 06:31:39;;;;;;;12.80;10.83;;;2.20;99.90;;;;;;5011107;28;20193;-77
2021/03/19 06:34:13;;;;;;;12.57;10.47;;;2.20;99.90;;;;;;5011244;28;20214;-76
2021/03/19 06:36:56;;;;;;;12.80;10.50;;;2.20;99.90;;;;;;5011107;28;20203;-77
2021/03/19 06:39:25;;;;;;;13.67;11.17;;;2.20;99.90;;;;;;5011123;28;20202;-76
2021/03/19 06:42:10;;;;;;;13.53;10.87;;;2.20;99.90;;;;;;5010889;28;20244;-77
2021/03/19 06:44:38;;;;;;;13.47;10.93;;;2.30;99.90;;;;;;5010797;28;20236;-77
2021/03/19 06:47:06;;;;;;;12.17;10.23;;;2.30;99.90;;;;;;5010755;28;20205;-78
2021/03/19 06:49:52;;;;;;;11.83;10.47;;;2.40;99.90;;;;;;5010591;28;20232;-78
2021/03/19 06:52:26;;;;;;;13.03;11.13;;;2.60;99.90;;;;;;5010840;28;20547;-79
2021/03/19 06:54:54;;;;;;;12.63;10.73;;;2.60;99.90;;;;;;5010725;28;20193;-79
2021/03/19 06:57:22;;;;;;;12.57;10.43;;;2.60;99.90;;;;;;5010886;28;20209;-77
2021/03/19 06:59:50;;;;;;;12.63;10.40;;;2.70;99.90;;;;;;5010587;28;20214;-75
2021/03/19 07:02:49;;;;;;;11.40;10.23;;;2.70;99.90;;;;;;5010690;28;20228;-75
2021/03/19 07:05:44;;;;;;;12.20;10.30;;;2.70;99.90;;;;;;5010761;28;20193;-75
2021/03/19 07:08:17;;;;;;;12.57;10.80;;;2.60;99.90;;;;;;5002242;28;20206;-75
2021/03/19 07:10:52;;;;;;;11.77;10.03;;;2.50;99.90;;;;;;5000427;28;20698;-77
2021/03/19 07:13:36;;;;;;;11.93;10.03;;;2.50;99.90;;;;;;4991192;28;20260;-76
2021/03/19 07:16:10;;;;;;;10.00;9.00;;;2.50;99.90;;;;;;5007399;28;20255;-76
2021/03/19 07:18:55;;;;;;;13.83;9.80;;;2.50;99.90;;;;;;5007805;28;20206;-76
2021/03/19 07:21:46;;;;;;;11.50;10.17;;;2.50;99.90;;;;;;5019043;28;20686;-76
2021/03/19 07:24:18;;;;;;;10.33;9.17;;;2.50;99.90;;;;;;5011018;28;20197;-76
2021/03/19 07:26:49;;;;;;;10.50;9.40;;;2.40;99.90;;;;;;5017699;28;20196;-76
2021/03/19 07:29:38;;;;;;;11.33;9.20;;;2.40;99.90;;;;;;5016014;28;20185;-77
2021/03/19 07:32:40;;;;;;;10.83;9.47;;;2.50;99.90;;;;;;5013477;28;20216;-76
2021/03/19 07:35:24;;;;;;;13.10;10.50;;;2.50;99.90;;;;;;5019937;28;20189;-76
2021/03/19 07:38:06;;;;;;;11.87;9.23;;;2.60;99.90;;;;;;5015813;28;20190;-76
2021/03/19 07:40:45;;;;;;;11.27;9.67;;;2.50;99.90;;;;;;5017936;28;20189;-76
2021/03/19 07:43:48;;;;;;;13.47;10.50;;;2.50;99.90;;;;;;5013527;28;20587;-76
2021/03/19 07:46:24;;;;;;;11.20;9.77;;;2.60;99.90;;;;;;5016876;28;20201;-77
2021/03/19 07:49:16;;;;;;;10.80;9.70;;;2.60;99.90;;;;;;5013703;28;20336;-77
2021/03/19 07:51:59;;;;;;;13.20;10.03;;;2.70;99.90;;;;;;5004072;28;20646;-77
2021/03/19 07:54:32;;;;;;;11.80;9.70;;;2.70;99.90;;;;;;5004888;28;20225;-78
2021/03/19 07:57:03;;;;;;;14.07;10.83;;;2.80;99.90;;;;;;5005750;28;20928;-79
2021/03/19 07:59:40;;;;;;;11.13;9.93;;;2.90;99.90;;;;;;5005622;28;20203;-77
2021/03/19 08:02:37;;;;;;;13.93;10.37;;;3.00;99.90;;;;;;5004171;28;20246;-77
2021/03/19 08:05:15;;;;;;;10.53;9.43;;;3.00;99.90;;;;;;4992615;28;20220;-77
2021/03/19 08:07:48;;;;;;;10.40;9.10;;;3.00;99.90;;;;;;4992702;28;20207;-77
2021/03/19 08:10:22;;;;;;;11.00;9.13;;;3.00;99.90;;;;;;4985607;28;20273;-74
2021/03/19 08:12:57;;;;;;;13.50;9.63;;;3.00;99.90;;;;;;4987277;28;20195;-79
2021/03/19 08:15:30;;;;;;;11.90;9.70;;;3.10;99.90;;;;;;5004828;28;20726;-77
2021/03/19 08:18:10;;;;;;;11.10;9.87;;;3.30;99.90;;;;;;5005532;28;20631;-77
2021/03/19 08:20:59;;;;;;;10.83;9.67;;;3.40;99.90;;;;;;4992507;28;20234;-77
2021/03/19 08:23:37;;;;;;;12.63;9.63;;;3.50;99.90;;;;;;4986540;28;20195;-77
2021/03/19 08:26:03;;;;;;;11.90;10.10;;;3.60;99.90;;;;;;4990263;28;20209;-77
2021/03/19 08:28:37;;;;;;;12.13;10.17;;;3.60;99.90;;;;;;5005646;28;20230;-76
2021/03/19 08:31:19;;;;;;;10.83;9.67;;;3.60;99.90;;;;;;5006079;28;20268;-77
2021/03/19 08:33:58;;;;;;;11.90;9.97;;;3.70;99.90;;;;;;5005922;28;20252;-77
2021/03/19 08:36:33;;;;;;;13.03;9.70;;;3.70;99.90;;;;;;5005723;28;20332;-77
2021/03/19 08:39:04;;;;;;;10.83;9.53;;;3.60;99.90;;;;;;5005726;28;20212;-77
2021/03/19 08:41:35;;;;;;;10.17;8.97;;;3.60;99.90;;;;;;5005563;28;20718;-77
2021/03/19 08:44:04;;;;;;;11.43;10.23;;;3.70;99.90;;;;;;5005857;28;20215;-77
2021/03/19 08:46:38;;;;;;;10.50;9.37;;;3.70;99.90;;;;;;4993991;28;20292;-77
2021/03/19 08:49:11;;;;;;;10.00;8.93;;;3.70;99.90;;;;;;4986102;28;20230;-77
2021/03/19 08:51:42;;;;;;;11.13;8.97;;;3.60;99.90;;;;;;4993127;28;20205;-77
2021/03/19 08:54:26;;;;;;;12.33;8.83;;;3.70;99.90;;;;;;5000572;28;20216;-77
2021/03/19 08:56:55;;;;;;;10.37;8.80;;;3.70;99.90;;;;;;5004222;28;20193;-77
2021/03/19 08:59:47;;;;;;;9.23;8.33;;;3.70;99.90;;;;;;5005723;28;20214;-77
2021/03/19 09:02:47;;;;;;;10.37;8.40;;;3.80;99.90;;;;;;5004958;28;20328;-73
2021/03/19 09:05:33;;;;;;;9.20;8.30;;;4.00;99.90;;;;;;5006568;28;20216;-77
2021/03/19 09:08:25;;;;;;;9.03;7.50;;;4.10;99.90;;;;;;5008752;28;20208;-77
2021/03/19 09:11:01;;;;;;;8.27;7.47;;;4.10;99.90;;;;;;5009608;28;20241;-77
2021/03/19 09:13:28;;;;;;;7.37;6.67;;;4.10;99.90;;;;;;5009420;28;20198;-77
2021/03/19 09:15:56;;;;;;;7.20;6.50;;;4.20;99.90;;;;;;5009128;28;20715;-77
2021/03/19 09:18:43;;;;;;;7.00;6.40;;;4.20;99.90;;;;;;5009045;28;20216;-75
2021/03/19 09:21:26;;;;;;;5.53;5.03;;;4.30;99.90;;;;;;5009040;28;20651;-76
2021/03/19 09:23:58;;;;;;;5.30;4.80;;;4.30;99.90;;;;;;5009572;28;20224;-77
2021/03/19 09:26:37;;;;;;;5.87;5.37;;;4.30;99.90;;;;;;5009266;28;20669;-77
2021/03/19 09:29:06;;;;;;;4.07;3.77;;;4.20;99.90;;;;;;5009164;28;20194;-77
2021/03/19 09:31:40;;;;;;;4.83;4.43;;;4.20;99.90;;;;;;5008343;28;20703;-77
2021/03/19 09:34:13;;;;;;;4.70;4.30;;;4.20;99.90;;;;;;5008824;28;20636;-77
2021/03/19 09:37:24;;;;;;;4.43;4.03;;;4.10;99.90;;;;;;5008968;28;20229;-77
2021/03/19 09:40:01;;;;;;;4.63;4.23;;;4.10;99.90;;;;;;4947005;29;20684;-76
2021/03/19 09:42:46;;;;;;;4.77;4.23;;;4.10;99.90;;;;;;5005015;28;20312;-77
2021/03/19 09:45:35;;;;;;;4.47;4.13;;;4.10;99.90;;;;;;5008914;28;20210;-77
2021/03/19 09:48:31;;;;;;;4.30;4.00;;;4.10;99.90;;;;;;5008945;28;20204;-77
2021/03/19 09:51:26;;;;;;;3.80;3.50;;;4.10;99.90;;;;;;5008371;28;20761;-76
2021/03/19 09:53:52;;;;;;;3.60;3.30;;;4.00;99.90;;;;;;5008709;28;20204;-77
2021/03/19 09:56:25;;;;;;;3.90;3.60;;;4.00;99.90;;;;;;5008727;28;20558;-77
2021/03/19 09:58:52;;;;;;;3.23;3.03;;;4.00;99.90;;;;;;5008671;28;20240;-77
2021/03/19 10:01:33;;;;;;;3.43;3.23;;;4.00;99.90;;;;;;5008666;28;20221;-77
2021/03/19 10:04:01;;;;;;;3.60;3.40;;;4.10;99.90;;;;;;4996827;28;20201;-77
2021/03/19 10:06:32;;;;;;;3.40;3.20;;;4.20;99.90;;;;;;4991024;28;20651;-78
2021/03/19 10:09:11;;;;;;;3.93;3.53;;;4.30;99.90;;;;;;5008463;28;20208;-76
2021/03/19 10:12:03;;;;;;;4.30;3.10;;;4.40;99.90;;;;;;5007872;28;20699;-76
2021/03/19 10:14:33;;;;;;;2.83;2.63;;;4.50;99.90;;;;;;5008274;28;20213;-76
2021/03/19 10:17:20;;;;;;;2.67;2.47;;;4.70;99.90;;;;;;5007460;28;20202;-77
2021/03/19 10:19:52;;;;;;;2.70;2.50;;;4.90;99.90;;;;;;5007759;28;20245;-77
2021/03/19 10:22:32;;;;;;;2.83;2.57;;;5.10;99.90;;;;;;5008214;28;20624;-77
2021/03/19 10:25:35;;;;;;;2.37;2.13;;;5.30;99.90;;;;;;5008267;28;20243;-77
2021/03/19 10:28:05;;;;;;;2.87;2.10;;;5.50;99.90;;;;;;4987646;28;20213;-76
2021/03/19 10:30:34;;;;;;;2.30;2.10;;;5.60;99.90;;;;;;5008019;28;20231;-76
2021/03/19 10:33:09;;;;;;;1.90;1.80;;;5.60;99.90;;;;;;5008222;28;20741;-77
2021/03/19 10:35:38;;;;;;;2.07;1.97;;;5.60;99.90;;;;;;5006822;28;20197;-76
2021/03/19 10:38:14;;;;;;;3.90;2.30;;;5.50;99.90;;;;;;5003348;28;20643;-77
2021/03/19 10:40:45;;;;;;;2.10;1.90;;;5.70;99.90;;;;;;5001472;28;20224;-77
2021/03/19 10:43:19;;;;;;;1.63;1.53;;;5.80;99.90;;;;;;5005498;28;20205;-77
2021/03/19 10:45:52;;;;;;;2.50;1.60;;;5.70;99.90;;;;;;5006407;28;20206;-77
2021/03/19 10:48:24;;;;;;;2.37;1.50;;;6.00;99.90;;;;;;5000314;28;20216;-77
2021/03/19 10:51:08;;;;;;;2.63;1.80;;;6.30;99.90;;;;;;5007204;28;21134;-76
2021/03/19 10:53:43;;;;;;;1.70;1.60;;;6.40;99.90;;;;;;5007652;28;20194;-75
2021/03/19 10:56:10;;;;;;;2.07;1.50;;;6.40;99.90;;;;;;5007309;28;20704;-77
2021/03/19 10:58:42;;;;;;;1.40;1.30;;;6.40;99.90;;;;;;5004085;28;20672;-77
2021/03/19 11:01:35;;;;;;;2.53;1.37;;;6.20;99.90;;;;;;4999433;28;20212;-77
2021/03/19 11:04:04;;;;;;;1.50;1.40;;;6.10;99.90;;;;;;5006821;28;20660;-77
2021/03/19 11:06:38;;;;;;;1.73;1.50;;;6.10;99.90;;;;;;5006545;28;20209;-76
2021/03/19 11:09:11;;;;;;;1.93;1.53;;;6.10;99.90;;;;;;5007291;28;20308;-76
2021/03/19 11:11:37;;;;;;;2.17;1.73;;;6.10;99.90;;;;;;5006453;28;20722;-77
2021/03/19 11:14:07;;;;;;;1.87;1.77;;;6.30;99.90;;;;;;5002499;28;20236;-77
2021/03/19 11:16:36;;;;;;;1.33;1.30;;;6.50;99.90;;;;;;5007131;28;20205;-77
2021/03/19 11:19:06;;;;;;;1.30;1.13;;;6.80;99.90;;;;;;5004267;28;20245;-75
2021/03/19 11:21:33;;;;;;;1.63;1.33;;;7.10;99.90;;;;;;5001577;28;20577;-76
2021/03/19 11:24:07;;;;;;;1.70;1.40;;;7.10;99.90;;;;;;5004084;28;20244;-75
2021/03/19 11:26:35;;;;;;;1.70;1.60;;;6.80;99.90;;;;;;4997097;28;20606;-75
2021/03/19 11:29:19;;;;;;;1.20;1.07;;;6.60;99.90;;;;;;4995793;28;20770;-76
2021/03/19 11:31:56;;;;;;;1.07;1.00;;;6.20;99.90;;;;;;5006804;28;20264;-75
2021/03/19 11:34:30;;;;;;;1.00;0.80;;;5.80;99.90;;;;;;4987174;28;20221;-75
2021/03/19 11:36:59;;;;;;;1.33;1.20;;;5.70;99.90;;;;;;4987163;28;20194;-75
2021/03/19 11:39:57;;;;;;;1.53;0.93;;;5.90;99.90;;;;;;4986934;28;20214;-75
2021/03/19 11:42:25;;;;;;;1.27;1.17;;;6.30;99.90;;;;;;5001728;28;20261;-75
2021/03/19 11:44:55;;;;;;;1.40;0.97;;;6.60;99.90;;;;;;5005063;28;20209;-75
2021/03/19 11:47:24;;;;;;;1.10;1.10;;;6.90;99.90;;;;;;5006568;28;20206;-75
2021/03/19 11:49:53;;;;;;;1.80;1.13;;;7.10;99.90;;;;;;5006144;28;20582;-74
2021/03/19 11:52:21;;;;;;;1.93;1.10;;;7.40;99.90;;;;;;5006568;28;20244;-74
2021/03/19 11:54:48;;;;;;;0.80;0.80;;;7.40;99.90;;;;;;5013666;28;20201;-74
2021/03/19 11:57:15;;;;;;;0.80;0.80;;;7.30;99.90;;;;;;5016707;28;20201;-75
2021/03/19 11:59:41;;;;;;;1.53;0.97;;;7.00;99.90;;;;;;5018755;28;20201;-75
2021/03/19 12:02:23;;;;;;;1.43;1.10;;;6.80;99.90;;;;;;5018015;28;20553;-75
2021/03/19 12:04:49;;;;;;;1.40;1.30;;;6.70;99.90;;;;;;5017067;28;20248;-75
2021/03/19 12:07:15;;;;;;;0.97;0.97;;;6.60;99.90;;;;;;5017394;28;20205;-75
2021/03/19 12:09:43;;;;;;;1.33;1.03;;;6.60;99.90;;;;;;5018828;28;20217;-74
2021/03/19 12:12:14;;;;;;;1.10;1.10;;;6.50;99.90;;;;;;5017560;28;20209;-75
2021/03/19 12:14:40;;;;;;;1.83;1.10;;;6.30;99.90;;;;;;5013974;28;20190;-74
2021/03/19 12:17:07;;;;;;;1.40;1.30;;;6.20;99.90;;;;;;5018042;28;20205;-75
2021/03/19 12:19:34;;;;;;;1.43;1.00;;;6.20;99.90;;;;;;5016673;28;20233;-75
2021/03/19 12:22:00;;;;;;;1.33;1.23;;;6.20;99.90;;;;;;5015629;28;20202;-75
2021/03/19 12:24:26;;;;;;;1.93;1.77;;;6.30;99.90;;;;;;4997334;28;20248;-76
2021/03/19 12:26:52;;;;;;;3.00;2.80;;;6.60;99.90;;;;;;4999702;28;20199;-76
2021/03/19 12:29:18;;;;;;;1.23;1.10;;;6.80;99.90;;;;;;4999114;28;20215;-75
2021/03/19 12:31:45;;;;;;;1.90;1.27;;;6.90;99.90;;;;;;5006783;28;20870;-75
2021/03/19 12:34:11;;;;;;;2.83;1.17;;;6.80;99.90;;;;;;5008704;28;20213;-74
2021/03/19 12:36:38;;;;;;;2.07;1.37;;;6.60;99.90;;;;;;5008135;28;20567;-74
2021/03/19 12:39:05;;;;;;;1.30;0.80;;;6.40;99.90;;;;;;5003118;28;20216;-75
2021/03/19 12:41:31;;;;;;;0.80;0.77;;;6.30;99.90;;;;;;5005396;28;20253;-74
2021/03/19 12:43:58;;;;;;;4.23;2.67;;;6.30;99.90;;;;;;4988835;28;20685;-75
2021/03/19 12:46:24;;;;;;;1.33;1.00;;;6.30;99.90;;;;;;4988549;28;20669;-75
2021/03/19 12:48:50;;;;;;;1.27;1.17;;;6.30;99.90;;;;;;4988414;28;20198;-75
2021/03/19 12:51:16;;;;;;;1.30;1.20;;;6.40;99.90;;;;;;4988749;28;20248;-75
2021/03/19 12:53:44;;;;;;;5.93;1.03;;;6.50;99.90;;;;;;4988739;28;20210;-75
2021/03/19 12:56:11;;;;;;;1.10;1.10;;;6.40;99.90;;;;;;4988947;28;20243;-74
2021/03/19 12:58:37;;;;;;;2.73;1.17;;;6.30;99.90;;;;;;4986973;28;20218;-75
2021/03/19 13:01:03;;;;;;;3.07;1.33;;;6.20;99.90;;;;;;5005087;28;20209;-75
2021/03/19 13:03:30;;;;;;;1.47;1.37;;;6.20;99.90;;;;;;5004549;28;20210;-75
2021/03/19 13:05:57;;;;;;;1.00;1.00;;;6.10;99.90;;;;;;5004636;28;20291;-75
2021/03/19 13:08:25;;;;;;;1.50;1.10;;;6.00;99.90;;;;;;4999219;28;20667;-75
2021/03/19 13:10:52;;;;;;;1.60;1.13;;;5.90;99.90;;;;;;4984894;28;20265;-75
2021/03/19 13:13:19;;;;;;;1.47;0.93;;;5.90;99.90;;;;;;4985357;28;20237;-75
2021/03/19 13:15:46;;;;;;;1.17;1.07;;;6.00;99.90;;;;;;4985092;28;20210;-75
2021/03/19 13:18:13;;;;;;;1.70;1.23;;;6.10;99.90;;;;;;4987602;28;20202;-75